sensor_id;sensor_type;location;lat;lon;timestamp;temperature;humidity
11399;DHT22;5755;48.116;11.608;2023-03-13T00:02:08;6.20;99.10
11399;DHT22;5755;48.116;11.608;2023-03-13T00:05:19;6.20;98.90
11399;DHT22;5755;48.116;11.608;2023-03-13T00:07:46;6.20;98.70
11399;DHT22;5755;48.116;11.608;2023-03-13T00:10:14;6.10;98.80
11399;DHT22;5755;48.116;11.608;2023-03-13T00:12:41;6.10;98.90
11399;DHT22;5755;48.116;11.608;2023-03-13T00:15:08;6.10;99.00
11399;DHT22;5755;48.116;11.608;2023-03-13T00:17:37;6.10;99.10
11399;DHT22;5755;48.116;11.608;2023-03-13T00:20:45;6.10;98.80
11399;DHT22;5755;48.116;11.608;2023-03-13T00:23:26;6.10;98.70
11399;DHT22;5755;48.116;11.608;2023-03-13T00:25:57;6.00;98.70
11399;DHT22;5755;48.116;11.608;2023-03-13T00:28:38;6.00;98.90
11399;DHT22;5755;48.116;11.608;2023-03-13T00:31:07;5.90;99.00
11399;DHT22;5755;48.116;11.608;2023-03-13T00:33:38;5.90;99.10
11399;DHT22;5755;48.116;11.608;2023-03-13T00:36:06;5.80;99.10
11399;DHT22;5755;48.116;11.608;2023-03-13T00:38:34;5.80;99.30
11399;DHT22;5755;48.116;11.608;2023-03-13T00:41:02;5.70;99.40
11399;DHT22;5755;48.116;11.608;2023-03-13T00:43:44;5.70;99.50
11399;DHT22;5755;48.116;11.608;2023-03-13T00:46:12;5.70;99.30
11399;DHT22;5755;48.116;11.608;2023-03-13T00:48:41;5.70;99.30
11399;DHT22;5755;48.116;11.608;2023-03-13T00:51:09;5.60;99.30
11399;DHT22;5755;48.116;11.608;2023-03-13T00:53:36;5.60;99.50
11399;DHT22;5755;48.116;11.608;2023-03-13T00:56:05;5.60;99.80
11399;DHT22;5755;48.116;11.608;2023-03-13T00:58:34;5.50;99.60
11399;DHT22;5755;48.116;11.608;2023-03-13T01:01:08;5.50;99.70
11399;DHT22;5755;48.116;11.608;2023-03-13T01:03:37;5.40;99.70
11399;DHT22;5755;48.116;11.608;2023-03-13T01:06:09;5.40;99.90
11399;DHT22;5755;48.116;11.608;2023-03-13T01:08:37;5.30;99.90
11399;DHT22;5755;48.116;11.608;2023-03-13T01:11:05;5.20;99.90
11399;DHT22;5755;48.116;11.608;2023-03-13T01:13:33;5.20;99.90
11399;DHT22;5755;48.116;11.608;2023-03-13T01:16:02;5.20;99.90
11399;DHT22;5755;48.116;11.608;2023-03-13T01:18:29;5.20;99.90
11399;DHT22;5755;48.116;11.608;2023-03-13T01:20:56;5.20;99.90
11399;DHT22;5755;48.116;11.608;2023-03-13T01:23:25;5.10;99.90
11399;DHT22;5755;48.116;11.608;2023-03-13T01:25:53;5.10;99.90
11399;DHT22;5755;48.116;11.608;2023-03-13T01:28:19;5.00;99.90
11399;DHT22;5755;48.116;11.608;2023-03-13T01:30:47;5.00;99.90
11399;DHT22;5755;48.116;11.608;2023-03-13T01:33:14;5.00;99.90
11399;DHT22;5755;48.116;11.608;2023-03-13T01:35:41;4.90;99.90
11399;DHT22;5755;48.116;11.608;2023-03-13T01:38:08;4.90;99.90
11399;DHT22;5755;48.116;11.608;2023-03-13T01:40:41;4.90;99.90
11399;DHT22;5755;48.116;11.608;2023-03-13T01:43:16;4.90;99.90
11399;DHT22;5755;48.116;11.608;2023-03-13T01:46:00;4.80;99.90
11399;DHT22;5755;48.116;11.608;2023-03-13T01:48:36;4.80;99.90
11399;DHT22;5755;48.116;11.608;2023-03-13T01:51:07;4.80;99.90
11399;DHT22;5755;48.116;11.608;2023-03-13T01:53:36;4.80;99.90
11399;DHT22;5755;48.116;11.608;2023-03-13T01:56:10;4.70;99.90
11399;DHT22;5755;48.116;11.608;2023-03-13T01:58:39;4.60;99.90
11399;DHT22;5755;48.116;11.608;2023-03-13T02:01:06;4.60;99.90
11399;DHT22;5755;48.116;11.608;2023-03-13T02:03:34;4.60;99.90
11399;DHT22;5755;48.116;11.608;2023-03-13T02:06:04;4.60;99.90
11399;DHT22;5755;48.116;11.608;2023-03-13T02:08:34;4.50;99.90
11399;DHT22;5755;48.116;11.608;2023-03-13T02:11:11;4.50;99.90
11399;DHT22;5755;48.116;11.608;2023-03-13T02:13:41;4.60;99.90
11399;DHT22;5755;48.116;11.608;2023-03-13T02:16:09;4.60;99.90
11399;DHT22;5755;48.116;11.608;2023-03-13T02:18:36;4.60;99.90
11399;DHT22;5755;48.116;11.608;2023-03-13T02:21:10;4.60;99.90
11399;DHT22;5755;48.116;11.608;2023-03-13T02:23:45;4.60;99.90
11399;DHT22;5755;48.116;11.608;2023-03-13T02:26:16;4.60;99.90
11399;DHT22;5755;48.116;11.608;2023-03-13T02:28:44;4.60;99.90
11399;DHT22;5755;48.116;11.608;2023-03-13T02:31:11;4.60;99.90
11399;DHT22;5755;48.116;11.608;2023-03-13T02:33:40;4.60;99.90
11399;DHT22;5755;48.116;11.608;2023-03-13T02:36:09;4.50;99.90
11399;DHT22;5755;48.116;11.608;2023-03-13T02:38:41;4.50;99.90
11399;DHT22;5755;48.116;11.608;2023-03-13T02:41:09;4.50;99.90
11399;DHT22;5755;48.116;11.608;2023-03-13T02:43:38;4.50;99.90
11399;DHT22;5755;48.116;11.608;2023-03-13T02:46:08;4.50;99.90
11399;DHT22;5755;48.116;11.608;2023-03-13T02:48:37;4.50;99.90
11399;DHT22;5755;48.116;11.608;2023-03-13T02:51:10;4.50;99.90
11399;DHT22;5755;48.116;11.608;2023-03-13T02:53:38;4.50;99.90
11399;DHT22;5755;48.116;11.608;2023-03-13T02:56:06;4.60;99.90
11399;DHT22;5755;48.116;11.608;2023-03-13T02:58:41;4.70;99.90
11399;DHT22;5755;48.116;11.608;2023-03-13T03:01:09;4.70;99.90
11399;DHT22;5755;48.116;11.608;2023-03-13T03:03:36;4.70;99.90
11399;DHT22;5755;48.116;11.608;2023-03-13T03:06:04;4.70;99.90
11399;DHT22;5755;48.116;11.608;2023-03-13T03:08:32;4.60;99.90
11399;DHT22;5755;48.116;11.608;2023-03-13T03:11:00;4.60;99.90
11399;DHT22;5755;48.116;11.608;2023-03-13T03:13:27;4.60;99.90
11399;DHT22;5755;48.116;11.608;2023-03-13T03:15:55;4.60;99.90
11399;DHT22;5755;48.116;11.608;2023-03-13T03:18:22;4.60;99.90
11399;DHT22;5755;48.116;11.608;2023-03-13T03:20:50;4.60;99.90
11399;DHT22;5755;48.116;11.608;2023-03-13T03:23:17;4.60;99.90
11399;DHT22;5755;48.116;11.608;2023-03-13T03:25:43;4.60;99.90
11399;DHT22;5755;48.116;11.608;2023-03-13T03:28:10;4.60;99.90
11399;DHT22;5755;48.116;11.608;2023-03-13T03:30:37;4.70;99.90
11399;DHT22;5755;48.116;11.608;2023-03-13T03:33:05;4.80;99.90
11399;DHT22;5755;48.116;11.608;2023-03-13T03:35:32;4.80;99.90
11399;DHT22;5755;48.116;11.608;2023-03-13T03:38:02;4.80;99.90
11399;DHT22;5755;48.116;11.608;2023-03-13T03:40:29;4.80;99.90
11399;DHT22;5755;48.116;11.608;2023-03-13T03:42:56;4.90;99.90
11399;DHT22;5755;48.116;11.608;2023-03-13T03:45:23;4.90;99.70
11399;DHT22;5755;48.116;11.608;2023-03-13T03:47:50;4.90;99.20
11399;DHT22;5755;48.116;11.608;2023-03-13T03:50:18;4.90;99.40
11399;DHT22;5755;48.116;11.608;2023-03-13T03:52:45;5.00;99.60
11399;DHT22;5755;48.116;11.608;2023-03-13T03:55:12;5.00;99.30
11399;DHT22;5755;48.116;11.608;2023-03-13T03:57:39;5.00;99.10
11399;DHT22;5755;48.116;11.608;2023-03-13T04:00:07;4.90;99.10
11399;DHT22;5755;48.116;11.608;2023-03-13T04:02:35;4.90;99.30
11399;DHT22;5755;48.116;11.608;2023-03-13T04:05:02;4.90;99.40
11399;DHT22;5755;48.116;11.608;2023-03-13T04:07:31;4.80;99.40
11399;DHT22;5755;48.116;11.608;2023-03-13T04:09:58;4.80;99.20
11399;DHT22;5755;48.116;11.608;2023-03-13T04:12:25;4.80;99.10
11399;DHT22;5755;48.116;11.608;2023-03-13T04:14:52;4.90;98.80
11399;DHT22;5755;48.116;11.608;2023-03-13T04:17:19;4.90;98.60
11399;DHT22;5755;48.116;11.608;2023-03-13T04:19:45;5.00;98.50
11399;DHT22;5755;48.116;11.608;2023-03-13T04:22:12;5.00;98.30
11399;DHT22;5755;48.116;11.608;2023-03-13T04:24:41;5.00;98.20
11399;DHT22;5755;48.116;11.608;2023-03-13T04:27:08;5.10;98.10
11399;DHT22;5755;48.116;11.608;2023-03-13T04:29:35;5.10;98.00
11399;DHT22;5755;48.116;11.608;2023-03-13T04:32:02;5.10;98.30
11399;DHT22;5755;48.116;11.608;2023-03-13T04:34:29;5.10;98.20
11399;DHT22;5755;48.116;11.608;2023-03-13T04:36:55;5.10;98.20
11399;DHT22;5755;48.116;11.608;2023-03-13T04:39:23;5.20;97.70
11399;DHT22;5755;48.116;11.608;2023-03-13T04:41:52;5.10;97.50
11399;DHT22;5755;48.116;11.608;2023-03-13T04:44:19;5.10;97.60
11399;DHT22;5755;48.116;11.608;2023-03-13T04:46:46;5.10;97.70
11399;DHT22;5755;48.116;11.608;2023-03-13T04:49:14;5.10;97.70
11399;DHT22;5755;48.116;11.608;2023-03-13T04:51:41;5.20;97.10
11399;DHT22;5755;48.116;11.608;2023-03-13T04:54:08;5.20;97.10
11399;DHT22;5755;48.116;11.608;2023-03-13T04:56:35;5.30;97.40
11399;DHT22;5755;48.116;11.608;2023-03-13T04:59:04;5.20;97.30
11399;DHT22;5755;48.116;11.608;2023-03-13T05:01:30;5.20;97.60
11399;DHT22;5755;48.116;11.608;2023-03-13T05:03:58;5.30;97.50
11399;DHT22;5755;48.116;11.608;2023-03-13T05:06:26;5.30;97.30
11399;DHT22;5755;48.116;11.608;2023-03-13T05:08:53;5.30;97.30
11399;DHT22;5755;48.116;11.608;2023-03-13T05:11:20;5.30;97.30
11399;DHT22;5755;48.116;11.608;2023-03-13T05:13:47;5.30;97.30
11399;DHT22;5755;48.116;11.608;2023-03-13T05:16:15;5.40;97.20
11399;DHT22;5755;48.116;11.608;2023-03-13T05:18:42;5.50;96.80
11399;DHT22;5755;48.116;11.608;2023-03-13T05:21:09;5.50;96.70
11399;DHT22;5755;48.116;11.608;2023-03-13T05:23:36;5.50;96.80
11399;DHT22;5755;48.116;11.608;2023-03-13T05:26:03;5.50;97.00
11399;DHT22;5755;48.116;11.608;2023-03-13T05:28:30;5.50;97.00
11399;DHT22;5755;48.116;11.608;2023-03-13T05:30:58;5.50;96.50
11399;DHT22;5755;48.116;11.608;2023-03-13T05:33:26;5.60;96.80
11399;DHT22;5755;48.116;11.608;2023-03-13T05:36:07;5.70;96.40
11399;DHT22;5755;48.116;11.608;2023-03-13T05:38:34;5.70;96.00
11399;DHT22;5755;48.116;11.608;2023-03-13T05:41:01;5.70;96.10
11399;DHT22;5755;48.116;11.608;2023-03-13T05:43:28;5.80;96.00
11399;DHT22;5755;48.116;11.608;2023-03-13T05:45:55;5.80;95.60
11399;DHT22;5755;48.116;11.608;2023-03-13T05:48:22;5.90;95.90
11399;DHT22;5755;48.116;11.608;2023-03-13T05:50:50;5.90;95.90
11399;DHT22;5755;48.116;11.608;2023-03-13T05:53:18;6.00;95.60
11399;DHT22;5755;48.116;11.608;2023-03-13T05:55:45;6.10;95.30
11399;DHT22;5755;48.116;11.608;2023-03-13T05:58:12;6.10;95.60
11399;DHT22;5755;48.116;11.608;2023-03-13T06:00:39;6.20;95.30
11399;DHT22;5755;48.116;11.608;2023-03-13T06:03:08;6.20;95.10
11399;DHT22;5755;48.116;11.608;2023-03-13T06:05:35;6.30;95.30
11399;DHT22;5755;48.116;11.608;2023-03-13T06:08:05;6.30;95.30
11399;DHT22;5755;48.116;11.608;2023-03-13T06:10:31;6.30;95.30
11399;DHT22;5755;48.116;11.608;2023-03-13T06:12:58;6.30;95.40
11399;DHT22;5755;48.116;11.608;2023-03-13T06:15:25;6.30;95.40
11399;DHT22;5755;48.116;11.608;2023-03-13T06:17:52;6.40;95.40
11399;DHT22;5755;48.116;11.608;2023-03-13T06:20:19;6.40;95.40
11399;DHT22;5755;48.116;11.608;2023-03-13T06:22:46;6.40;95.30
11399;DHT22;5755;48.116;11.608;2023-03-13T06:25:15;6.50;95.40
11399;DHT22;5755;48.116;11.608;2023-03-13T06:27:42;6.50;95.10
11399;DHT22;5755;48.116;11.608;2023-03-13T06:30:10;6.60;94.20
11399;DHT22;5755;48.116;11.608;2023-03-13T06:32:37;6.80;93.70
11399;DHT22;5755;48.116;11.608;2023-03-13T06:35:05;6.80;93.40
11399;DHT22;5755;48.116;11.608;2023-03-13T06:37:32;6.90;93.60
11399;DHT22;5755;48.116;11.608;2023-03-13T06:40:00;7.00;94.60
11399;DHT22;5755;48.116;11.608;2023-03-13T06:42:32;7.00;94.40
11399;DHT22;5755;48.116;11.608;2023-03-13T06:45:14;7.00;94.00
11399;DHT22;5755;48.116;11.608;2023-03-13T06:47:41;7.10;93.50
11399;DHT22;5755;48.116;11.608;2023-03-13T06:50:09;7.10;93.50
11399;DHT22;5755;48.116;11.608;2023-03-13T06:52:36;7.20;93.30
11399;DHT22;5755;48.116;11.608;2023-03-13T06:55:04;7.30;92.90
11399;DHT22;5755;48.116;11.608;2023-03-13T06:57:32;7.30;93.60
11399;DHT22;5755;48.116;11.608;2023-03-13T06:59:59;7.40;93.60
11399;DHT22;5755;48.116;11.608;2023-03-13T07:02:26;7.40;93.20
11399;DHT22;5755;48.116;11.608;2023-03-13T07:04:53;7.40;92.70
11399;DHT22;5755;48.116;11.608;2023-03-13T07:07:20;7.40;92.90
11399;DHT22;5755;48.116;11.608;2023-03-13T07:09:47;7.50;92.70
11399;DHT22;5755;48.116;11.608;2023-03-13T07:12:14;7.50;92.50
11399;DHT22;5755;48.116;11.608;2023-03-13T07:14:43;7.60;92.10
11399;DHT22;5755;48.116;11.608;2023-03-13T07:17:10;7.70;92.20
11399;DHT22;5755;48.116;11.608;2023-03-13T07:19:37;7.70;91.70
11399;DHT22;5755;48.116;11.608;2023-03-13T07:22:04;7.70;92.30
11399;DHT22;5755;48.116;11.608;2023-03-13T07:24:31;7.70;92.20
11399;DHT22;5755;48.116;11.608;2023-03-13T07:26:58;7.80;91.60
11399;DHT22;5755;48.116;11.608;2023-03-13T07:29:27;7.90;91.00
11399;DHT22;5755;48.116;11.608;2023-03-13T07:31:55;8.10;90.30
11399;DHT22;5755;48.116;11.608;2023-03-13T07:34:22;8.20;90.20
11399;DHT22;5755;48.116;11.608;2023-03-13T07:36:49;8.30;88.10
11399;DHT22;5755;48.116;11.608;2023-03-13T07:39:18;8.40;86.50
11399;DHT22;5755;48.116;11.608;2023-03-13T07:41:45;8.50;82.90
11399;DHT22;5755;48.116;11.608;2023-03-13T07:44:12;8.60;81.50
11399;DHT22;5755;48.116;11.608;2023-03-13T07:46:40;8.70;80.40
11399;DHT22;5755;48.116;11.608;2023-03-13T07:49:09;8.80;79.20
11399;DHT22;5755;48.116;11.608;2023-03-13T07:51:51;8.90;75.90
11399;DHT22;5755;48.116;11.608;2023-03-13T07:54:18;8.90;77.10
11399;DHT22;5755;48.116;11.608;2023-03-13T07:57:07;8.80;83.10
11399;DHT22;5755;48.116;11.608;2023-03-13T07:59:48;8.90;81.40
11399;DHT22;5755;48.116;11.608;2023-03-13T08:02:18;8.90;79.20
11399;DHT22;5755;48.116;11.608;2023-03-13T08:04:50;8.90;83.50
11399;DHT22;5755;48.116;11.608;2023-03-13T08:07:34;9.10;86.10
11399;DHT22;5755;48.116;11.608;2023-03-13T08:10:39;9.30;84.80
11399;DHT22;5755;48.116;11.608;2023-03-13T08:13:20;9.50;82.50
11399;DHT22;5755;48.116;11.608;2023-03-13T08:15:49;9.70;79.90
11399;DHT22;5755;48.116;11.608;2023-03-13T08:18:16;9.80;76.30
11399;DHT22;5755;48.116;11.608;2023-03-13T08:20:46;10.00;66.00
11399;DHT22;5755;48.116;11.608;2023-03-13T08:23:15;10.20;56.10
11399;DHT22;5755;48.116;11.608;2023-03-13T08:25:43;10.60;58.00
11399;DHT22;5755;48.116;11.608;2023-03-13T08:28:10;10.90;49.80
11399;DHT22;5755;48.116;11.608;2023-03-13T08:30:37;11.10;53.90
11399;DHT22;5755;48.116;11.608;2023-03-13T08:33:04;11.40;48.10
11399;DHT22;5755;48.116;11.608;2023-03-13T08:35:31;11.50;48.10
11399;DHT22;5755;48.116;11.608;2023-03-13T08:38:00;11.50;48.20
11399;DHT22;5755;48.116;11.608;2023-03-13T08:40:27;11.50;45.90
11399;DHT22;5755;48.116;11.608;2023-03-13T08:42:54;11.30;48.00
11399;DHT22;5755;48.116;11.608;2023-03-13T08:45:22;11.10;49.90
11399;DHT22;5755;48.116;11.608;2023-03-13T08:47:51;10.90;56.00
11399;DHT22;5755;48.116;11.608;2023-03-13T08:50:18;10.80;62.80
11399;DHT22;5755;48.116;11.608;2023-03-13T08:52:47;10.80;66.20
11399;DHT22;5755;48.116;11.608;2023-03-13T08:55:20;11.00;70.60
11399;DHT22;5755;48.116;11.608;2023-03-13T08:57:48;11.20;60.60
11399;DHT22;5755;48.116;11.608;2023-03-13T09:00:17;11.50;57.90
11399;DHT22;5755;48.116;11.608;2023-03-13T09:02:44;11.70;54.90
11399;DHT22;5755;48.116;11.608;2023-03-13T09:05:11;12.10;48.70
11399;DHT22;5755;48.116;11.608;2023-03-13T09:07:38;12.80;42.70
11399;DHT22;5755;48.116;11.608;2023-03-13T09:10:07;13.20;41.90
11399;DHT22;5755;48.116;11.608;2023-03-13T09:12:36;13.70;37.70
11399;DHT22;5755;48.116;11.608;2023-03-13T09:15:03;14.30;33.70
11399;DHT22;5755;48.116;11.608;2023-03-13T09:17:30;14.90;33.00
11399;DHT22;5755;48.116;11.608;2023-03-13T09:19:57;15.30;28.10
11399;DHT22;5755;48.116;11.608;2023-03-13T09:22:24;15.30;27.80
11399;DHT22;5755;48.116;11.608;2023-03-13T09:24:51;15.40;28.20
11399;DHT22;5755;48.116;11.608;2023-03-13T09:27:18;15.20;26.60
11399;DHT22;5755;48.116;11.608;2023-03-13T09:29:48;14.90;27.70
11399;DHT22;5755;48.116;11.608;2023-03-13T09:32:15;14.70;27.60
11399;DHT22;5755;48.116;11.608;2023-03-13T09:34:44;14.50;27.40
11399;DHT22;5755;48.116;11.608;2023-03-13T09:37:11;14.60;27.50
11399;DHT22;5755;48.116;11.608;2023-03-13T09:39:39;15.50;26.10
11399;DHT22;5755;48.116;11.608;2023-03-13T09:42:11;16.70;23.20
11399;DHT22;5755;48.116;11.608;2023-03-13T09:44:53;17.70;18.90
11399;DHT22;5755;48.116;11.608;2023-03-13T09:47:24;18.70;15.90
11399;DHT22;5755;48.116;11.608;2023-03-13T09:49:54;18.90;15.30
11399;DHT22;5755;48.116;11.608;2023-03-13T09:52:24;18.80;15.40
11399;DHT22;5755;48.116;11.608;2023-03-13T09:54:54;18.60;16.50
11399;DHT22;5755;48.116;11.608;2023-03-13T09:57:27;18.90;16.00
11399;DHT22;5755;48.116;11.608;2023-03-13T10:00:02;19.00;15.90
11399;DHT22;5755;48.116;11.608;2023-03-13T10:02:43;19.20;16.20
11399;DHT22;5755;48.116;11.608;2023-03-13T10:05:15;19.90;13.80
11399;DHT22;5755;48.116;11.608;2023-03-13T10:07:44;20.20;13.20
11399;DHT22;5755;48.116;11.608;2023-03-13T10:10:14;20.00;14.00
11399;DHT22;5755;48.116;11.608;2023-03-13T10:12:44;20.00;13.10
11399;DHT22;5755;48.116;11.608;2023-03-13T10:15:29;19.80;13.60
11399;DHT22;5755;48.116;11.608;2023-03-13T10:17:59;20.20;12.80
11399;DHT22;5755;48.116;11.608;2023-03-13T10:20:33;19.90;14.20
11399;DHT22;5755;48.116;11.608;2023-03-13T10:23:05;20.10;14.70
11399;DHT22;5755;48.116;11.608;2023-03-13T10:25:33;20.70;12.20
11399;DHT22;5755;48.116;11.608;2023-03-13T10:28:03;20.70;11.40
11399;DHT22;5755;48.116;11.608;2023-03-13T10:30:33;20.60;11.90
11399;DHT22;5755;48.116;11.608;2023-03-13T10:33:18;19.90;13.30
11399;DHT22;5755;48.116;11.608;2023-03-13T10:35:59;19.40;14.00
11399;DHT22;5755;48.116;11.608;2023-03-13T10:38:26;19.10;14.80
11399;DHT22;5755;48.116;11.608;2023-03-13T10:40:56;19.50;15.10
11399;DHT22;5755;48.116;11.608;2023-03-13T10:43:25;19.70;14.90
11399;DHT22;5755;48.116;11.608;2023-03-13T10:45:54;19.70;14.60
11399;DHT22;5755;48.116;11.608;2023-03-13T10:48:22;19.60;13.90
11399;DHT22;5755;48.116;11.608;2023-03-13T10:50:51;19.40;14.40
11399;DHT22;5755;48.116;11.608;2023-03-13T10:53:24;19.20;16.10
11399;DHT22;5755;48.116;11.608;2023-03-13T10:55:54;18.90;16.70
11399;DHT22;5755;48.116;11.608;2023-03-13T10:58:24;19.10;15.70
11399;DHT22;5755;48.116;11.608;2023-03-13T11:03:45;19.70;14.50
11399;DHT22;5755;48.116;11.608;2023-03-13T11:06:29;19.60;15.40
11399;DHT22;5755;48.116;11.608;2023-03-13T11:09:02;19.70;15.10
11399;DHT22;5755;48.116;11.608;2023-03-13T11:11:30;19.20;14.40
11399;DHT22;5755;48.116;11.608;2023-03-13T11:14:13;19.40;15.20
11399;DHT22;5755;48.116;11.608;2023-03-13T11:16:45;19.50;14.50
11399;DHT22;5755;48.116;11.608;2023-03-13T11:19:39;19.60;15.70
11399;DHT22;5755;48.116;11.608;2023-03-13T11:22:22;19.60;14.30
11399;DHT22;5755;48.116;11.608;2023-03-13T11:24:56;19.60;15.30
11399;DHT22;5755;48.116;11.608;2023-03-13T11:27:43;19.70;16.20
11399;DHT22;5755;48.116;11.608;2023-03-13T11:30:19;19.80;16.10
11399;DHT22;5755;48.116;11.608;2023-03-13T11:33:08;19.80;16.60
11399;DHT22;5755;48.116;11.608;2023-03-13T11:35:45;19.80;15.90
11399;DHT22;5755;48.116;11.608;2023-03-13T11:38:18;19.50;16.70
11399;DHT22;5755;48.116;11.608;2023-03-13T11:41:08;19.60;17.10
11399;DHT22;5755;48.116;11.608;2023-03-13T11:43:49;19.50;18.30
11399;DHT22;5755;48.116;11.608;2023-03-13T11:46:27;19.50;18.40
11399;DHT22;5755;48.116;11.608;2023-03-13T11:49:20;19.30;18.10
11399;DHT22;5755;48.116;11.608;2023-03-13T11:51:58;19.20;19.40
11399;DHT22;5755;48.116;11.608;2023-03-13T11:54:44;19.10;20.90
11399;DHT22;5755;48.116;11.608;2023-03-13T11:57:40;19.10;20.40
11399;DHT22;5755;48.116;11.608;2023-03-13T12:00:19;19.20;20.30
11399;DHT22;5755;48.116;11.608;2023-03-13T12:03:05;19.30;22.10
11399;DHT22;5755;48.116;11.608;2023-03-13T12:05:42;19.30;22.30
11399;DHT22;5755;48.116;11.608;2023-03-13T12:08:17;19.30;22.60
11399;DHT22;5755;48.116;11.608;2023-03-13T12:10:47;19.20;22.60
11399;DHT22;5755;48.116;11.608;2023-03-13T12:13:34;19.30;22.90
11399;DHT22;5755;48.116;11.608;2023-03-13T12:16:08;19.30;22.50
11399;DHT22;5755;48.116;11.608;2023-03-13T12:18:39;19.30;21.40
11399;DHT22;5755;48.116;11.608;2023-03-13T12:21:13;19.20;22.70
11399;DHT22;5755;48.116;11.608;2023-03-13T12:23:47;19.00;21.80
11399;DHT22;5755;48.116;11.608;2023-03-13T12:26:17;18.80;22.90
11399;DHT22;5755;48.116;11.608;2023-03-13T12:28:50;18.60;22.20
11399;DHT22;5755;48.116;11.608;2023-03-13T12:31:26;18.60;22.70
11399;DHT22;5755;48.116;11.608;2023-03-13T12:33:59;18.60;23.20
11399;DHT22;5755;48.116;11.608;2023-03-13T12:36:32;18.70;23.60
11399;DHT22;5755;48.116;11.608;2023-03-13T12:39:13;18.80;23.50
11399;DHT22;5755;48.116;11.608;2023-03-13T12:41:47;18.80;22.60
11399;DHT22;5755;48.116;11.608;2023-03-13T12:44:17;18.70;22.60
11399;DHT22;5755;48.116;11.608;2023-03-13T12:46:45;18.80;22.70
11399;DHT22;5755;48.116;11.608;2023-03-13T12:49:43;18.70;21.70
11399;DHT22;5755;48.116;11.608;2023-03-13T12:52:32;18.70;22.70
11399;DHT22;5755;48.116;11.608;2023-03-13T12:58:20;18.70;23.20
11399;DHT22;5755;48.116;11.608;2023-03-13T13:00:51;18.70;23.50
11399;DHT22;5755;48.116;11.608;2023-03-13T13:03:25;18.70;23.00
11399;DHT22;5755;48.116;11.608;2023-03-13T13:06:03;18.60;23.30
11399;DHT22;5755;48.116;11.608;2023-03-13T13:08:36;18.50;23.20
11399;DHT22;5755;48.116;11.608;2023-03-13T13:11:44;18.80;23.50
11399;DHT22;5755;48.116;11.608;2023-03-13T13:18:11;19.10;22.80
11399;DHT22;5755;48.116;11.608;2023-03-13T13:20:45;19.20;21.60
11399;DHT22;5755;48.116;11.608;2023-03-13T13:23:28;19.30;23.50
11399;DHT22;5755;48.116;11.608;2023-03-13T13:32:35;19.50;21.70
11399;DHT22;5755;48.116;11.608;2023-03-13T13:35:05;19.40;21.20
11399;DHT22;5755;48.116;11.608;2023-03-13T13:37:32;19.20;21.70
11399;DHT22;5755;48.116;11.608;2023-03-13T13:40:20;19.30;22.00
11399;DHT22;5755;48.116;11.608;2023-03-13T13:42:52;19.30;22.30
11399;DHT22;5755;48.116;11.608;2023-03-13T13:45:29;19.20;21.40
11399;DHT22;5755;48.116;11.608;2023-03-13T13:48:24;19.20;22.50
11399;DHT22;5755;48.116;11.608;2023-03-13T13:51:19;19.20;22.40
11399;DHT22;5755;48.116;11.608;2023-03-13T13:53:49;19.20;22.30
11399;DHT22;5755;48.116;11.608;2023-03-13T13:56:38;19.10;22.80
11399;DHT22;5755;48.116;11.608;2023-03-13T13:59:32;19.10;22.30
11399;DHT22;5755;48.116;11.608;2023-03-13T14:02:19;19.00;21.80
11399;DHT22;5755;48.116;11.608;2023-03-13T14:04:53;18.90;22.60
11399;DHT22;5755;48.116;11.608;2023-03-13T14:07:27;18.90;22.50
11399;DHT22;5755;48.116;11.608;2023-03-13T14:10:03;18.90;22.20
11399;DHT22;5755;48.116;11.608;2023-03-13T14:12:33;18.80;22.30
11399;DHT22;5755;48.116;11.608;2023-03-13T14:15:10;18.90;23.20
11399;DHT22;5755;48.116;11.608;2023-03-13T14:17:39;18.90;22.60
11399;DHT22;5755;48.116;11.608;2023-03-13T14:20:18;18.80;22.40
11399;DHT22;5755;48.116;11.608;2023-03-13T14:22:48;18.80;22.90
11399;DHT22;5755;48.116;11.608;2023-03-13T14:25:17;18.90;22.60
11399;DHT22;5755;48.116;11.608;2023-03-13T14:27:46;18.90;22.80
11399;DHT22;5755;48.116;11.608;2023-03-13T14:30:15;18.90;22.60
11399;DHT22;5755;48.116;11.608;2023-03-13T14:32:56;18.90;22.90
11399;DHT22;5755;48.116;11.608;2023-03-13T14:35:24;18.80;22.60
11399;DHT22;5755;48.116;11.608;2023-03-13T14:38:00;18.90;22.30
11399;DHT22;5755;48.116;11.608;2023-03-13T14:40:29;18.90;21.60
11399;DHT22;5755;48.116;11.608;2023-03-13T14:42:58;18.90;22.30
11399;DHT22;5755;48.116;11.608;2023-03-13T14:45:28;18.80;21.80
11399;DHT22;5755;48.116;11.608;2023-03-13T14:48:01;18.80;21.90
11399;DHT22;5755;48.116;11.608;2023-03-13T14:50:30;18.70;22.80
11399;DHT22;5755;48.116;11.608;2023-03-13T14:53:00;18.70;23.70
11399;DHT22;5755;48.116;11.608;2023-03-13T14:55:33;18.70;22.00
11399;DHT22;5755;48.116;11.608;2023-03-13T14:58:02;18.70;22.50
11399;DHT22;5755;48.116;11.608;2023-03-13T15:00:38;18.70;22.80
11399;DHT22;5755;48.116;11.608;2023-03-13T15:03:20;18.60;22.40
11399;DHT22;5755;48.116;11.608;2023-03-13T15:06:02;18.60;22.80
11399;DHT22;5755;48.116;11.608;2023-03-13T15:08:30;18.70;22.90
11399;DHT22;5755;48.116;11.608;2023-03-13T15:10:57;18.60;22.90
11399;DHT22;5755;48.116;11.608;2023-03-13T15:13:31;18.60;22.90
11399;DHT22;5755;48.116;11.608;2023-03-13T15:15:59;18.50;22.30
11399;DHT22;5755;48.116;11.608;2023-03-13T15:18:28;18.50;22.90
11399;DHT22;5755;48.116;11.608;2023-03-13T15:20:58;18.50;23.60
11399;DHT22;5755;48.116;11.608;2023-03-13T15:24:11;18.40;22.70
11399;DHT22;5755;48.116;11.608;2023-03-13T15:27:18;18.30;23.20
11399;DHT22;5755;48.116;11.608;2023-03-13T15:29:45;18.20;24.10
11399;DHT22;5755;48.116;11.608;2023-03-13T15:32:29;18.10;24.50
11399;DHT22;5755;48.116;11.608;2023-03-13T15:34:56;18.10;24.60
11399;DHT22;5755;48.116;11.608;2023-03-13T15:37:28;18.10;25.90
11399;DHT22;5755;48.116;11.608;2023-03-13T15:39:56;18.10;24.50
11399;DHT22;5755;48.116;11.608;2023-03-13T15:42:24;18.00;24.80
11399;DHT22;5755;48.116;11.608;2023-03-13T15:44:51;17.90;25.00
11399;DHT22;5755;48.116;11.608;2023-03-13T15:47:20;17.80;25.40
11399;DHT22;5755;48.116;11.608;2023-03-13T15:49:47;17.80;25.40
11399;DHT22;5755;48.116;11.608;2023-03-13T15:52:16;17.70;25.30
11399;DHT22;5755;48.116;11.608;2023-03-13T15:54:45;17.70;26.00
11399;DHT22;5755;48.116;11.608;2023-03-13T15:57:13;17.70;26.00
11399;DHT22;5755;48.116;11.608;2023-03-13T15:59:40;17.70;25.80
11399;DHT22;5755;48.116;11.608;2023-03-13T16:02:13;17.70;25.80
11399;DHT22;5755;48.116;11.608;2023-03-13T16:04:41;17.70;27.00
11399;DHT22;5755;48.116;11.608;2023-03-13T16:07:09;17.70;25.40
11399;DHT22;5755;48.116;11.608;2023-03-13T16:09:37;17.70;25.80
11399;DHT22;5755;48.116;11.608;2023-03-13T16:12:06;17.70;26.90
11399;DHT22;5755;48.116;11.608;2023-03-13T16:14:56;17.70;25.50
11399;DHT22;5755;48.116;11.608;2023-03-13T16:17:23;17.70;25.70
11399;DHT22;5755;48.116;11.608;2023-03-13T16:19:52;17.70;26.40
11399;DHT22;5755;48.116;11.608;2023-03-13T16:22:20;17.60;26.20
11399;DHT22;5755;48.116;11.608;2023-03-13T16:24:47;17.40;27.00